KCRP

Corpus Christi International Airport

Corpus Christi, Texas, USA
METAR KCRP 212251Z 11010KT 10SM FEW015 SCT100 BKN150 OVC200 28/26 A2984 RMK AO2 SLP103 T02830261 $
Observed Flight Rules
Jun-21 @ 22:51 UTC (an hour ago) Visual Flight Rules
Wind Visibility Clouds
110° at 10 knots 10 miles
  • Few at 1,500' AGL
  • Scattered at 10,000' AGL
  • Broken at 15,000' AGL
  • Overcast at 20,000' AGL
Temperatures Readings
Current 28°C / 82°F
Dewpoint 26°C / 79°F
Humidity 89%
Altimeter 29.84" Hg
Pressure 1010.3 hPa
Elevation 14
METAR KCRP 212251Z 11010KT 10SM FEW015 SCT100 BKN150 OVC200 28/26 A2984 RMK AO2 SLP103 T02830261 $
Observed Flight Rules
Jun-21 @ 22:51 UTC
(an hour ago)
VFR
Wind Visibility
110° at 10 knots 10 miles
Clouds
  • Few at 1,500' AGL
  • Scattered at 10,000' AGL
  • Broken at 15,000' AGL
  • Overcast at 20,000' AGL
Temperature Dewpoint
28°C / 82°F 26°C / 79°F
Humidity Altimeter Pressure
89% 29.84" Hg 1010.3 hPa